Ascot, United Kingdom

12:29 PM BST on July 04, 2015 (GMT +0100)
IBERKSWI1 | | Change Station
CLOSE
Current Station
Personal Weather Station
Location: Ascot, BERKS
Elevation: 243 ft
Nearby Weather Stations

Elev 243 ft 51.42 °N, 0.68 °W | Updated 23 seconds ago

Scattered Clouds
Scattered Clouds
74.0 °F
Feels Like 76 °F
N
11.5
Wind Variable Wind from West
Gusts 11.5 mph

Today
High -- | Low -- °F
--% Chance of Precip.
Yesterday
High -- | Low -- °F
Precip. -- in
4:52 AM 9:21 PM
Waning Gibbous, 93% visible
Pressure 30.09 in
Visibility 6.2 miles
Clouds Scattered Clouds 2800 ft
Heat Index 76 °F
Dew Point 62 °F
Humidity 66%
Rainfall 0.05 in
Snow Depth Not available.
UV 5.2 out of 12
Pollen Not available.
Air Quality Not available.
Flu Activity Not available.
METAR EGLF 041120Z 21013KT 180V240 9999 SCT028 22/15 Q1019

More Conditions Fewer Conditions

Pressure 30.09 in
Visibility 6.2 miles
Clouds Scattered Clouds 2800 ft
Heat Index 76 °F
Dew Point 62 °F
Humidity 66%
Rainfall 0.05 in
Snow Depth Not available.
UV 5.2 out of 12
Pollen Not available.
Air Quality Not available.
Flu Activity Not available.
METAR EGLF 041120Z 21013KT 180V240 9999 SCT028 22/15 Q1019

More Conditions Fewer Conditions

10-Day Weather Forecast

×

Almanac

Astronomy

Jul. 04, 2015 Rise Set
Actual Time
Civil Twilight
Nautical Twilight
Astronomical Twilight
Moon
Length of Visible Light
Length of Day
Tomorrow will be .
, % of the Moon is Illuminated

Today's Extremes

Country Highs Country Lows

Community

WunderPhotos

Upload Photos

1,834,939 photos uploaded!

WunderBlogs® & News

Nearby

Air Quality

  Air Quality AQ Index Pollutant
Not available.

Snow Depth

Station Depth Elevation

Earthquake Activity

City Distance Mag. Time & Date
Minimum magnitude displayed is 2.5.

Coastal Water Temperatures

Place Temperature

Stations

Nearby Weather Stations

Station Location Temp. Windchill Dew Point Humidity Wind Precip. Elev Updated Type